Pagina principale
METAR-TAF:

METAR-TAF

Aeroporti :

Aeroporto di Liegi-Bierset

Liegi, Belgio

latitudine: 50-39N, longitudine: 005-27E, altezza: 186 m

Osservazione

Il bollettino è stato emesso 36 minuti fa, alle 03:50 UTC
Vento 5 kt da nord/nord-est
Temperature -4°C
Umidità 74%
Pressione 1031 hPa
Visibilità 10 km o più
nessuna nube inferiore a 1500 m e nessun cumulonembo

METAR: EBLG 300350Z 02005KT CAVOK M04/M08 Q1031 NOSIG

Ora: 06:26 (04:26 UTC)

Previsione

Il bollettino è stato emesso 5 ore e 18 minuti fa, alle 23:08 UTC
Previsione valida dal 30 alle 00 UTC al 31 alle 06 UTC
Vento 6 kt da nord/nord-est
Visibilità 10 km o più
Poco nuvoloso ad un'altezza di 3000 ft
Probabilità 30%
dal 30 alle 14 UTC al 30 alle 20 UTC
Nuvoloso ad un'altezza di 1200 ft
Probabilità 30%
dal 31 alle 02 UTC al 31 alle 06 UTC
Nuvoloso ad un'altezza di 800 ft

TAF: EBLG 292308Z 3000/3106 03006KT 9999 FEW030 PROB30 3014/3020 BKN012 PROB30 3102/3106 BKN008

Osservazioni e previsioni meteorologiche di più di 4000 aeroporti (messaggi METAR e TAF).

Le stazioni disponibili sono rappresentate dai dischi gialli e rossi sulla carta.

Puntare il mouse per vedere il nome della stazione.

Clicca sopra per visualizzare le osservazioni e previsioni meteorologiche.

Per cambiare la mappa : fare clic sui pulsanti verdi con una croce nera per ingrandire, il pulsante verde con un trattino per diminuire, o sulla freccia verde per le mappe adiacenti.


METAR-TAF: